sensor_id;sensor_type;location;lat;lon;timestamp;pressure;altitude;pressure_sealevel;temperature;humidity
967;BME280;56108;48.730;9.304;2023-05-20T00:01:34;97629.28;;;11.47;100.00
967;BME280;56108;48.730;9.304;2023-05-20T00:03:45;97630.66;;;11.53;100.00
967;BME280;56108;48.730;9.304;2023-05-20T00:05:54;97626.22;;;11.41;100.00
967;BME280;56108;48.730;9.304;2023-05-20T00:08:02;97625.16;;;11.43;100.00
967;BME280;56108;48.730;9.304;2023-05-20T00:10:13;97626.53;;;11.36;100.00
967;BME280;56108;48.730;9.304;2023-05-20T00:12:21;97623.44;;;11.42;100.00
967;BME280;56108;48.730;9.304;2023-05-20T00:14:29;97626.66;;;11.35;100.00
967;BME280;56108;48.730;9.304;2023-05-20T00:16:37;97622.59;;;11.42;100.00
967;BME280;56108;48.730;9.304;2023-05-20T00:18:49;97622.50;;;11.43;100.00
967;BME280;56108;48.730;9.304;2023-05-20T00:20:58;97619.53;;;11.35;100.00
967;BME280;56108;48.730;9.304;2023-05-20T00:23:06;97620.38;;;11.36;100.00
967;BME280;56108;48.730;9.304;2023-05-20T00:25:14;97621.63;;;11.43;100.00
967;BME280;56108;48.730;9.304;2023-05-20T00:27:22;97619.13;;;11.53;100.00
967;BME280;56108;48.730;9.304;2023-05-20T00:29:32;97618.84;;;11.44;100.00
967;BME280;56108;48.730;9.304;2023-05-20T00:31:42;97615.22;;;11.45;100.00
967;BME280;56108;48.730;9.304;2023-05-20T00:33:52;97612.03;;;11.40;100.00
967;BME280;56108;48.730;9.304;2023-05-20T00:36:00;97614.91;;;11.37;100.00
967;BME280;56108;48.730;9.304;2023-05-20T00:38:08;97613.00;;;11.39;100.00
967;BME280;56108;48.730;9.304;2023-05-20T00:40:17;97613.00;;;11.39;100.00
967;BME280;56108;48.730;9.304;2023-05-20T00:42:27;97615.69;;;11.27;100.00
967;BME280;56108;48.730;9.304;2023-05-20T00:44:35;97615.03;;;11.36;100.00
967;BME280;56108;48.730;9.304;2023-05-20T00:46:43;97610.59;;;11.23;100.00
967;BME280;56108;48.730;9.304;2023-05-20T00:48:54;97616.34;;;11.30;100.00
967;BME280;56108;48.730;9.304;2023-05-20T00:51:03;97609.31;;;11.29;100.00
967;BME280;56108;48.730;9.304;2023-05-20T00:53:11;97608.75;;;11.37;100.00
967;BME280;56108;48.730;9.304;2023-05-20T00:55:20;97615.38;;;11.31;100.00
967;BME280;56108;48.730;9.304;2023-05-20T00:57:28;97603.13;;;11.29;100.00
967;BME280;56108;48.730;9.304;2023-05-20T00:59:37;97600.47;;;11.29;100.00
967;BME280;56108;48.730;9.304;2023-05-20T01:01:48;97612.63;;;11.20;100.00
967;BME280;56108;48.730;9.304;2023-05-20T01:03:59;97608.91;;;11.10;100.00
967;BME280;56108;48.730;9.304;2023-05-20T01:06:07;97606.25;;;11.10;100.00
967;BME280;56108;48.730;9.304;2023-05-20T01:08:16;97607.66;;;11.03;100.00
967;BME280;56108;48.730;9.304;2023-05-20T01:10:25;97597.09;;;11.14;100.00
967;BME280;56108;48.730;9.304;2023-05-20T01:12:38;97604.31;;;11.12;100.00
967;BME280;56108;48.730;9.304;2023-05-20T01:14:52;97595.06;;;11.17;100.00
967;BME280;56108;48.730;9.304;2023-05-20T01:17:05;97589.94;;;11.14;100.00
967;BME280;56108;48.730;9.304;2023-05-20T01:19:24;97593.19;;;11.07;100.00
967;BME280;56108;48.730;9.304;2023-05-20T01:21:36;97595.78;;;11.19;100.00
967;BME280;56108;48.730;9.304;2023-05-20T01:23:49;97590.06;;;11.13;100.00
967;BME280;56108;48.730;9.304;2023-05-20T01:25:57;97588.78;;;11.06;100.00
967;BME280;56108;48.730;9.304;2023-05-20T01:28:08;97595.16;;;11.16;100.00
967;BME280;56108;48.730;9.304;2023-05-20T01:30:23;97591.88;;;11.12;100.00
967;BME280;56108;48.730;9.304;2023-05-20T01:32:37;97584.63;;;11.14;100.00
967;BME280;56108;48.730;9.304;2023-05-20T01:34:47;97577.28;;;11.05;100.00
967;BME280;56108;48.730;9.304;2023-05-20T01:36:58;97585.78;;;11.10;100.00
967;BME280;56108;48.730;9.304;2023-05-20T01:39:11;97584.66;;;11.02;100.00
967;BME280;56108;48.730;9.304;2023-05-20T01:41:21;97572.41;;;10.99;100.00
967;BME280;56108;48.730;9.304;2023-05-20T01:43:31;97575.94;;;10.87;100.00
967;BME280;56108;48.730;9.304;2023-05-20T01:45:42;97574.97;;;10.88;100.00
967;BME280;56108;48.730;9.304;2023-05-20T01:47:50;97575.84;;;10.88;100.00
967;BME280;56108;48.730;9.304;2023-05-20T01:50:09;97579.34;;;11.02;100.00
967;BME280;56108;48.730;9.304;2023-05-20T01:52:20;97572.31;;;10.88;100.00
967;BME280;56108;48.730;9.304;2023-05-20T01:54:31;97571.47;;;10.75;100.00
967;BME280;56108;48.730;9.304;2023-05-20T01:56:39;97571.59;;;10.86;100.00
967;BME280;56108;48.730;9.304;2023-05-20T01:58:47;97572.13;;;10.78;100.00
967;BME280;56108;48.730;9.304;2023-05-20T02:00:55;97560.94;;;10.73;100.00
967;BME280;56108;48.730;9.304;2023-05-20T02:03:04;97566.38;;;10.71;100.00
967;BME280;56108;48.730;9.304;2023-05-20T02:05:13;97559.69;;;10.53;100.00
967;BME280;56108;48.730;9.304;2023-05-20T02:07:21;97560.19;;;10.58;100.00
967;BME280;56108;48.730;9.304;2023-05-20T02:09:32;97562.78;;;10.47;100.00
967;BME280;56108;48.730;9.304;2023-05-20T02:11:42;97550.44;;;10.46;100.00
967;BME280;56108;48.730;9.304;2023-05-20T02:13:50;97562.13;;;10.43;100.00
967;BME280;56108;48.730;9.304;2023-05-20T02:15:59;97555.53;;;10.49;100.00
967;BME280;56108;48.730;9.304;2023-05-20T02:18:07;97562.78;;;10.47;100.00
967;BME280;56108;48.730;9.304;2023-05-20T02:20:16;97551.94;;;10.50;100.00
967;BME280;56108;48.730;9.304;2023-05-20T02:22:24;97555.84;;;10.57;100.00
967;BME280;56108;48.730;9.304;2023-05-20T02:24:35;97559.69;;;10.53;100.00
967;BME280;56108;48.730;9.304;2023-05-20T02:26:45;97547.34;;;10.39;100.00
967;BME280;56108;48.730;9.304;2023-05-20T02:28:55;97558.31;;;10.35;100.00
967;BME280;56108;48.730;9.304;2023-05-20T02:31:02;97553.63;;;10.26;100.00
967;BME280;56108;48.730;9.304;2023-05-20T02:33:12;97559.78;;;10.26;100.00
967;BME280;56108;48.730;9.304;2023-05-20T02:35:20;97561.94;;;10.34;100.00
967;BME280;56108;48.730;9.304;2023-05-20T02:37:29;97562.31;;;10.28;100.00
967;BME280;56108;48.730;9.304;2023-05-20T02:39:39;97558.09;;;10.25;100.00
967;BME280;56108;48.730;9.304;2023-05-20T02:41:47;97555.19;;;10.28;100.00
967;BME280;56108;48.730;9.304;2023-05-20T02:43:55;97559.78;;;10.26;100.00
967;BME280;56108;48.730;9.304;2023-05-20T02:46:05;97550.75;;;10.29;100.00
967;BME280;56108;48.730;9.304;2023-05-20T02:48:13;97551.25;;;10.21;100.00
967;BME280;56108;48.730;9.304;2023-05-20T02:50:21;97553.72;;;10.24;100.00
967;BME280;56108;48.730;9.304;2023-05-20T02:52:32;97557.28;;;10.23;100.00
967;BME280;56108;48.730;9.304;2023-05-20T02:54:43;97552.94;;;10.22;100.00
967;BME280;56108;48.730;9.304;2023-05-20T02:56:52;97554.59;;;10.25;100.00
967;BME280;56108;48.730;9.304;2023-05-20T02:59:00;97553.16;;;10.19;100.00
967;BME280;56108;48.730;9.304;2023-05-20T03:01:09;97553.91;;;10.21;100.00
967;BME280;56108;48.730;9.304;2023-05-20T03:03:17;97557.97;;;10.27;100.00
967;BME280;56108;48.730;9.304;2023-05-20T03:05:25;97557.25;;;10.25;100.00
967;BME280;56108;48.730;9.304;2023-05-20T03:07:35;97548.69;;;10.19;100.00
967;BME280;56108;48.730;9.304;2023-05-20T03:09:46;97549.44;;;10.22;100.00
967;BME280;56108;48.730;9.304;2023-05-20T03:11:56;97552.72;;;10.12;100.00
967;BME280;56108;48.730;9.304;2023-05-20T03:14:05;97543.03;;;10.11;100.00
967;BME280;56108;48.730;9.304;2023-05-20T03:16:13;97549.75;;;10.04;100.00
967;BME280;56108;48.730;9.304;2023-05-20T03:18:21;97546.22;;;10.04;100.00
967;BME280;56108;48.730;9.304;2023-05-20T03:20:29;97544.94;;;9.97;100.00
967;BME280;56108;48.730;9.304;2023-05-20T03:22:42;97540.16;;;9.89;100.00
967;BME280;56108;48.730;9.304;2023-05-20T03:24:53;97538.44;;;9.88;100.00
967;BME280;56108;48.730;9.304;2023-05-20T03:27:01;97536.81;;;9.85;100.00
967;BME280;56108;48.730;9.304;2023-05-20T03:29:10;97530.25;;;9.78;100.00
967;BME280;56108;48.730;9.304;2023-05-20T03:31:18;97536.75;;;9.87;100.00
967;BME280;56108;48.730;9.304;2023-05-20T03:33:28;97537.91;;;9.83;100.00
967;BME280;56108;48.730;9.304;2023-05-20T03:35:38;97539.28;;;9.88;100.00
967;BME280;56108;48.730;9.304;2023-05-20T03:37:46;97538.13;;;9.92;100.00
967;BME280;56108;48.730;9.304;2023-05-20T03:40:02;97541.94;;;9.88;100.00
967;BME280;56108;48.730;9.304;2023-05-20T03:42:12;97550.44;;;9.81;100.00
967;BME280;56108;48.730;9.304;2023-05-20T03:44:20;97539.59;;;9.84;100.00
967;BME280;56108;48.730;9.304;2023-05-20T03:46:28;97546.84;;;9.82;100.00
967;BME280;56108;48.730;9.304;2023-05-20T03:48:39;97541.94;;;9.88;100.00
967;BME280;56108;48.730;9.304;2023-05-20T03:50:48;97538.03;;;10.07;100.00
967;BME280;56108;48.730;9.304;2023-05-20T03:52:57;97544.53;;;10.15;100.00
967;BME280;56108;48.730;9.304;2023-05-20T03:55:13;97547.31;;;10.14;100.00
967;BME280;56108;48.730;9.304;2023-05-20T03:57:21;97545.81;;;10.10;100.00
967;BME280;56108;48.730;9.304;2023-05-20T03:59:29;97548.16;;;10.14;100.00
967;BME280;56108;48.730;9.304;2023-05-20T04:01:37;97544.56;;;10.28;100.00
967;BME280;56108;48.730;9.304;2023-05-20T04:03:48;97551.50;;;10.31;100.00
967;BME280;56108;48.730;9.304;2023-05-20T04:05:56;97546.06;;;10.45;100.00
967;BME280;56108;48.730;9.304;2023-05-20T04:08:04;97556.81;;;10.43;100.00
967;BME280;56108;48.730;9.304;2023-05-20T04:10:17;97558.50;;;10.57;100.00
967;BME280;56108;48.730;9.304;2023-05-20T04:12:27;97562.34;;;10.66;100.00
967;BME280;56108;48.730;9.304;2023-05-20T04:14:36;97566.06;;;10.63;100.00
967;BME280;56108;48.730;9.304;2023-05-20T04:16:47;97563.72;;;10.71;100.00
967;BME280;56108;48.730;9.304;2023-05-20T04:18:56;97561.25;;;10.81;100.00
967;BME280;56108;48.730;9.304;2023-05-20T04:21:07;97566.59;;;10.81;100.00
967;BME280;56108;48.730;9.304;2023-05-20T04:23:18;97556.09;;;10.91;100.00
967;BME280;56108;48.730;9.304;2023-05-20T04:25:29;97556.44;;;10.99;100.00
967;BME280;56108;48.730;9.304;2023-05-20T04:27:39;97566.81;;;11.15;100.00
967;BME280;56108;48.730;9.304;2023-05-20T04:29:50;97566.69;;;11.16;100.00
967;BME280;56108;48.730;9.304;2023-05-20T04:32:03;97559.88;;;11.25;100.00
967;BME280;56108;48.730;9.304;2023-05-20T04:34:15;97569.94;;;11.33;100.00
967;BME280;56108;48.730;9.304;2023-05-20T04:36:31;97562.72;;;11.59;100.00
967;BME280;56108;48.730;9.304;2023-05-20T04:38:42;97569.47;;;11.75;100.00
967;BME280;56108;48.730;9.304;2023-05-20T04:40:58;97566.69;;;12.01;100.00
967;BME280;56108;48.730;9.304;2023-05-20T04:43:07;97577.78;;;12.19;100.00
967;BME280;56108;48.730;9.304;2023-05-20T04:45:16;97573.25;;;12.43;100.00
967;BME280;56108;48.730;9.304;2023-05-20T04:47:24;97579.56;;;12.65;100.00
967;BME280;56108;48.730;9.304;2023-05-20T04:49:33;97577.88;;;12.75;100.00
967;BME280;56108;48.730;9.304;2023-05-20T04:51:43;97568.53;;;12.80;100.00
967;BME280;56108;48.730;9.304;2023-05-20T04:53:55;97577.88;;;12.97;100.00
967;BME280;56108;48.730;9.304;2023-05-20T04:56:08;97580.88;;;13.15;100.00
967;BME280;56108;48.730;9.304;2023-05-20T04:58:17;97572.53;;;12.86;100.00
967;BME280;56108;48.730;9.304;2023-05-20T05:00:30;97580.69;;;12.96;100.00
967;BME280;56108;48.730;9.304;2023-05-20T05:02:39;97581.28;;;12.88;100.00
967;BME280;56108;48.730;9.304;2023-05-20T05:04:47;97568.31;;;12.95;100.00
967;BME280;56108;48.730;9.304;2023-05-20T05:06:59;97570.72;;;12.98;100.00
967;BME280;56108;48.730;9.304;2023-05-20T05:09:09;97569.28;;;13.05;100.00
967;BME280;56108;48.730;9.304;2023-05-20T05:11:21;97569.63;;;13.23;100.00
967;BME280;56108;48.730;9.304;2023-05-20T05:13:33;97580.19;;;13.47;100.00
967;BME280;56108;48.730;9.304;2023-05-20T05:15:41;97577.50;;;13.02;100.00
967;BME280;56108;48.730;9.304;2023-05-20T05:17:50;97576.66;;;13.13;100.00
967;BME280;56108;48.730;9.304;2023-05-20T05:20:01;97568.53;;;13.25;100.00
967;BME280;56108;48.730;9.304;2023-05-20T05:22:11;97571.69;;;13.30;100.00
967;BME280;56108;48.730;9.304;2023-05-20T05:24:19;97561.00;;;13.08;100.00
967;BME280;56108;48.730;9.304;2023-05-20T05:26:32;97564.03;;;13.37;100.00
967;BME280;56108;48.730;9.304;2023-05-20T05:28:40;97562.97;;;13.93;100.00
967;BME280;56108;48.730;9.304;2023-05-20T05:30:50;97566.97;;;14.30;100.00
967;BME280;56108;48.730;9.304;2023-05-20T05:33:00;97569.97;;;14.58;100.00
967;BME280;56108;48.730;9.304;2023-05-20T05:35:09;97561.63;;;14.51;100.00
967;BME280;56108;48.730;9.304;2023-05-20T05:37:17;97552.59;;;14.52;100.00
967;BME280;56108;48.730;9.304;2023-05-20T05:39:27;97556.88;;;14.44;100.00
967;BME280;56108;48.730;9.304;2023-05-20T05:41:38;97553.38;;;14.22;100.00
967;BME280;56108;48.730;9.304;2023-05-20T05:43:52;97555.50;;;13.43;100.00
967;BME280;56108;48.730;9.304;2023-05-20T05:46:04;97558.88;;;13.89;100.00
967;BME280;56108;48.730;9.304;2023-05-20T05:48:14;97546.97;;;13.81;100.00
967;BME280;56108;48.730;9.304;2023-05-20T05:50:23;97540.81;;;14.23;100.00
967;BME280;56108;48.730;9.304;2023-05-20T05:52:31;97547.16;;;14.01;100.00
967;BME280;56108;48.730;9.304;2023-05-20T05:54:40;97540.22;;;13.66;100.00
967;BME280;56108;48.730;9.304;2023-05-20T05:56:53;97541.16;;;13.76;100.00
967;BME280;56108;48.730;9.304;2023-05-20T05:59:04;97545.50;;;13.89;100.00
967;BME280;56108;48.730;9.304;2023-05-20T06:01:12;97548.59;;;14.26;100.00
967;BME280;56108;48.730;9.304;2023-05-20T06:03:24;97544.66;;;15.02;100.00
967;BME280;56108;48.730;9.304;2023-05-20T06:05:38;97550.25;;;15.30;100.00
967;BME280;56108;48.730;9.304;2023-05-20T06:07:48;97560.03;;;15.40;100.00
967;BME280;56108;48.730;9.304;2023-05-20T06:10:12;97551.41;;;15.47;100.00
967;BME280;56108;48.730;9.304;2023-05-20T06:12:24;97553.31;;;15.85;100.00
967;BME280;56108;48.730;9.304;2023-05-20T06:14:34;97555.66;;;15.59;100.00
967;BME280;56108;48.730;9.304;2023-05-20T06:16:44;97548.78;;;15.16;100.00
967;BME280;56108;48.730;9.304;2023-05-20T06:18:54;97549.09;;;15.73;99.94
967;BME280;56108;48.730;9.304;2023-05-20T06:21:08;97543.44;;;15.85;98.77
967;BME280;56108;48.730;9.304;2023-05-20T06:23:17;97536.38;;;15.84;95.52
967;BME280;56108;48.730;9.304;2023-05-20T06:25:32;97538.13;;;15.45;96.35
967;BME280;56108;48.730;9.304;2023-05-20T06:27:43;97543.03;;;16.00;95.42
967;BME280;56108;48.730;9.304;2023-05-20T06:29:55;97540.28;;;15.51;99.69
967;BME280;56108;48.730;9.304;2023-05-20T06:32:03;97540.16;;;15.62;99.02
967;BME280;56108;48.730;9.304;2023-05-20T06:34:13;97541.03;;;15.63;98.17
967;BME280;56108;48.730;9.304;2023-05-20T06:36:24;97539.00;;;15.55;98.65
967;BME280;56108;48.730;9.304;2023-05-20T06:38:36;97532.00;;;15.74;99.53
967;BME280;56108;48.730;9.304;2023-05-20T06:40:45;97530.69;;;16.46;95.28
967;BME280;56108;48.730;9.304;2023-05-20T06:42:57;97533.25;;;16.84;91.31
967;BME280;56108;48.730;9.304;2023-05-20T06:45:26;97535.00;;;17.58;83.74
967;BME280;56108;48.730;9.304;2023-05-20T06:47:53;97535.09;;;17.21;82.39
967;BME280;56108;48.730;9.304;2023-05-20T06:50:03;97529.88;;;16.06;89.93
967;BME280;56108;48.730;9.304;2023-05-20T06:52:15;97525.91;;;15.91;94.13
967;BME280;56108;48.730;9.304;2023-05-20T06:54:27;97527.91;;;16.08;94.59
967;BME280;56108;48.730;9.304;2023-05-20T06:56:38;97521.97;;;15.85;94.44
967;BME280;56108;48.730;9.304;2023-05-20T06:58:49;97512.22;;;16.04;93.00
967;BME280;56108;48.730;9.304;2023-05-20T07:00:57;97522.13;;;17.07;85.33
967;BME280;56108;48.730;9.304;2023-05-20T07:03:07;97519.66;;;16.86;84.20
967;BME280;56108;48.730;9.304;2023-05-20T07:05:18;97524.81;;;17.07;79.28
967;BME280;56108;48.730;9.304;2023-05-20T07:07:28;97513.88;;;16.81;85.16
967;BME280;56108;48.730;9.304;2023-05-20T07:09:37;97537.09;;;19.14;71.80
967;BME280;56108;48.730;9.304;2023-05-20T07:11:46;97545.97;;;19.91;63.89
967;BME280;56108;48.730;9.304;2023-05-20T07:13:57;97536.47;;;18.42;67.10
967;BME280;56108;48.730;9.304;2023-05-20T07:16:08;97523.47;;;18.89;69.10
967;BME280;56108;48.730;9.304;2023-05-20T07:18:21;97537.22;;;18.70;65.61
967;BME280;56108;48.730;9.304;2023-05-20T07:20:31;97523.59;;;17.92;67.91
967;BME280;56108;48.730;9.304;2023-05-20T07:22:44;97507.56;;;16.72;77.52
967;BME280;56108;48.730;9.304;2023-05-20T07:24:58;97502.16;;;17.09;76.86
967;BME280;56108;48.730;9.304;2023-05-20T07:27:09;97502.31;;;16.70;81.09
967;BME280;56108;48.730;9.304;2023-05-20T07:29:20;97503.53;;;16.86;78.94
967;BME280;56108;48.730;9.304;2023-05-20T07:31:29;97489.69;;;16.34;83.77
967;BME280;56108;48.730;9.304;2023-05-20T07:33:38;97497.19;;;16.40;86.12
967;BME280;56108;48.730;9.304;2023-05-20T07:35:48;97502.50;;;16.03;89.79
967;BME280;56108;48.730;9.304;2023-05-20T07:37:59;97504.75;;;15.88;90.80
967;BME280;56108;48.730;9.304;2023-05-20T07:40:08;97502.06;;;15.78;90.16
967;BME280;56108;48.730;9.304;2023-05-20T07:42:19;97497.47;;;15.50;93.02
967;BME280;56108;48.730;9.304;2023-05-20T07:44:34;97490.47;;;15.68;91.33
967;BME280;56108;48.730;9.304;2023-05-20T07:46:43;97491.19;;;15.80;91.32
967;BME280;56108;48.730;9.304;2023-05-20T07:48:51;97482.25;;;15.60;94.11
967;BME280;56108;48.730;9.304;2023-05-20T07:51:00;97483.00;;;15.72;92.98
967;BME280;56108;48.730;9.304;2023-05-20T07:53:08;97477.34;;;15.75;89.96
967;BME280;56108;48.730;9.304;2023-05-20T07:55:16;97473.09;;;15.62;91.99
967;BME280;56108;48.730;9.304;2023-05-20T07:57:25;97467.75;;;15.72;92.10
967;BME280;56108;48.730;9.304;2023-05-20T07:59:36;97475.66;;;15.74;92.19
967;BME280;56108;48.730;9.304;2023-05-20T08:01:49;97478.06;;;15.77;88.72
967;BME280;56108;48.730;9.304;2023-05-20T08:03:57;97479.44;;;16.10;87.80
967;BME280;56108;48.730;9.304;2023-05-20T08:06:06;97485.41;;;15.84;89.36
967;BME280;56108;48.730;9.304;2023-05-20T08:08:15;97483.97;;;15.71;90.19
967;BME280;56108;48.730;9.304;2023-05-20T08:10:31;97480.28;;;15.52;92.60
967;BME280;56108;48.730;9.304;2023-05-20T08:12:39;97476.03;;;15.50;92.51
967;BME280;56108;48.730;9.304;2023-05-20T08:14:50;97478.28;;;15.54;90.76
967;BME280;56108;48.730;9.304;2023-05-20T08:16:58;97481.97;;;15.53;89.78
967;BME280;56108;48.730;9.304;2023-05-20T08:19:06;97492.03;;;15.71;89.88
967;BME280;56108;48.730;9.304;2023-05-20T08:21:15;97494.94;;;15.48;89.76
967;BME280;56108;48.730;9.304;2023-05-20T08:23:23;97501.06;;;15.89;89.57
967;BME280;56108;48.730;9.304;2023-05-20T08:25:32;97493.59;;;15.83;87.18
967;BME280;56108;48.730;9.304;2023-05-20T08:27:41;97488.06;;;16.04;87.82
967;BME280;56108;48.730;9.304;2023-05-20T08:29:52;97498.53;;;15.87;86.90
967;BME280;56108;48.730;9.304;2023-05-20T08:32:04;97487.50;;;16.00;87.02
967;BME280;56108;48.730;9.304;2023-05-20T08:34:12;97493.38;;;16.23;84.00
967;BME280;56108;48.730;9.304;2023-05-20T08:36:20;97503.50;;;16.49;81.82
967;BME280;56108;48.730;9.304;2023-05-20T08:38:28;97497.09;;;16.59;81.51
967;BME280;56108;48.730;9.304;2023-05-20T08:40:36;97499.25;;;16.56;81.55
967;BME280;56108;48.730;9.304;2023-05-20T08:42:48;97499.16;;;16.38;80.13
967;BME280;56108;48.730;9.304;2023-05-20T08:45:00;97498.41;;;17.02;80.32
967;BME280;56108;48.730;9.304;2023-05-20T08:49:17;97501.13;;;17.65;73.45
967;BME280;56108;48.730;9.304;2023-05-20T08:51:26;97496.47;;;17.40;72.64
967;BME280;56108;48.730;9.304;2023-05-20T08:53:36;97490.88;;;17.33;74.28
967;BME280;56108;48.730;9.304;2023-05-20T08:55:52;97495.75;;;17.83;72.63
967;BME280;56108;48.730;9.304;2023-05-20T08:58:04;97496.13;;;18.32;71.01
967;BME280;56108;48.730;9.304;2023-05-20T09:00:16;97501.31;;;19.54;67.57
967;BME280;56108;48.730;9.304;2023-05-20T09:02:25;97518.25;;;20.95;60.40
967;BME280;56108;48.730;9.304;2023-05-20T09:04:35;97516.31;;;21.11;59.13
967;BME280;56108;48.730;9.304;2023-05-20T09:06:45;97522.50;;;22.59;54.37
967;BME280;56108;48.730;9.304;2023-05-20T09:08:53;97537.19;;;22.04;54.03
967;BME280;56108;48.730;9.304;2023-05-20T09:11:02;97512.13;;;19.54;60.58
967;BME280;56108;48.730;9.304;2023-05-20T09:13:11;97497.16;;;18.57;64.66
967;BME280;56108;48.730;9.304;2023-05-20T09:15:22;97492.47;;;18.33;67.34
967;BME280;56108;48.730;9.304;2023-05-20T09:17:30;97481.44;;;17.83;70.03
967;BME280;56108;48.730;9.304;2023-05-20T09:19:41;97478.91;;;17.81;68.82
967;BME280;56108;48.730;9.304;2023-05-20T09:21:51;97474.97;;;17.93;70.55
967;BME280;56108;48.730;9.304;2023-05-20T09:24:01;97479.28;;;18.04;70.11
967;BME280;56108;48.730;9.304;2023-05-20T09:26:09;97470.75;;;17.91;70.90
967;BME280;56108;48.730;9.304;2023-05-20T09:28:18;97478.44;;;18.04;71.88
967;BME280;56108;48.730;9.304;2023-05-20T09:30:31;97476.66;;;17.94;68.47
967;BME280;56108;48.730;9.304;2023-05-20T09:32:40;97478.59;;;17.84;68.18
967;BME280;56108;48.730;9.304;2023-05-20T09:34:49;97473.06;;;18.30;67.55
967;BME280;56108;48.730;9.304;2023-05-20T09:36:58;97474.91;;;18.55;67.61
967;BME280;56108;48.730;9.304;2023-05-20T09:39:11;97478.16;;;18.85;67.32
967;BME280;56108;48.730;9.304;2023-05-20T09:41:23;97488.06;;;18.58;65.06
967;BME280;56108;48.730;9.304;2023-05-20T09:43:37;97479.34;;;18.64;66.29
967;BME280;56108;48.730;9.304;2023-05-20T09:45:50;97484.81;;;19.07;64.71
967;BME280;56108;48.730;9.304;2023-05-20T09:48:00;97484.34;;;19.19;63.82
967;BME280;56108;48.730;9.304;2023-05-20T09:50:10;97477.63;;;18.81;64.61
967;BME280;56108;48.730;9.304;2023-05-20T09:52:20;97472.78;;;18.93;65.78
967;BME280;56108;48.730;9.304;2023-05-20T09:54:30;97469.41;;;18.65;63.99
967;BME280;56108;48.730;9.304;2023-05-20T09:56:39;97471.75;;;18.94;64.97
967;BME280;56108;48.730;9.304;2023-05-20T09:58:52;97482.25;;;19.47;62.88
967;BME280;56108;48.730;9.304;2023-05-20T10:01:05;97482.84;;;20.16;57.89
967;BME280;56108;48.730;9.304;2023-05-20T10:03:16;97479.97;;;20.58;57.94
967;BME280;56108;48.730;9.304;2023-05-20T10:05:29;97475.59;;;20.17;59.28
967;BME280;56108;48.730;9.304;2023-05-20T10:08:04;97478.81;;;21.40;54.65
967;BME280;56108;48.730;9.304;2023-05-20T10:10:30;97487.88;;;22.09;53.46
967;BME280;56108;48.730;9.304;2023-05-20T10:12:47;97486.75;;;22.41;51.51
967;BME280;56108;48.730;9.304;2023-05-20T10:15:09;97495.13;;;23.43;50.53
967;BME280;56108;48.730;9.304;2023-05-20T10:17:36;97480.25;;;22.65;51.60
967;BME280;56108;48.730;9.304;2023-05-20T10:19:47;97484.00;;;21.80;51.72
967;BME280;56108;48.730;9.304;2023-05-20T10:21:59;97465.16;;;21.33;54.55
967;BME280;56108;48.730;9.304;2023-05-20T10:24:09;97475.00;;;20.78;54.97
967;BME280;56108;48.730;9.304;2023-05-20T10:26:18;97474.03;;;20.55;55.44
967;BME280;56108;48.730;9.304;2023-05-20T10:28:32;97466.09;;;21.09;54.37
967;BME280;56108;48.730;9.304;2023-05-20T10:30:48;97478.16;;;21.69;52.98
967;BME280;56108;48.730;9.304;2023-05-20T10:33:03;97471.78;;;20.83;54.24
967;BME280;56108;48.730;9.304;2023-05-20T10:35:13;97468.75;;;20.78;54.16
967;BME280;56108;48.730;9.304;2023-05-20T10:37:32;97475.66;;;21.59;52.69
967;BME280;56108;48.730;9.304;2023-05-20T10:39:42;97455.97;;;21.03;54.73
967;BME280;56108;48.730;9.304;2023-05-20T10:41:50;97465.75;;;20.65;56.20
967;BME280;56108;48.730;9.304;2023-05-20T10:43:59;97455.69;;;20.90;55.16
967;BME280;56108;48.730;9.304;2023-05-20T10:46:16;97460.69;;;21.48;53.98
967;BME280;56108;48.730;9.304;2023-05-20T10:48:41;97461.47;;;21.80;52.28
967;BME280;56108;48.730;9.304;2023-05-20T10:50:53;97458.09;;;21.55;54.19
967;BME280;56108;48.730;9.304;2023-05-20T10:53:03;97455.22;;;21.79;52.65
967;BME280;56108;48.730;9.304;2023-05-20T10:55:22;97452.97;;;21.60;53.86
967;BME280;56108;48.730;9.304;2023-05-20T10:57:30;97459.38;;;21.67;51.67
967;BME280;56108;48.730;9.304;2023-05-20T10:59:39;97451.25;;;20.97;53.55
967;BME280;56108;48.730;9.304;2023-05-20T11:01:48;97442.94;;;20.59;54.01
967;BME280;56108;48.730;9.304;2023-05-20T11:03:59;97434.31;;;20.64;54.68
967;BME280;56108;48.730;9.304;2023-05-20T11:06:12;97431.66;;;20.95;55.96
967;BME280;56108;48.730;9.304;2023-05-20T11:08:28;97429.44;;;20.98;53.79
967;BME280;56108;48.730;9.304;2023-05-20T11:10:36;97428.47;;;20.91;53.52
967;BME280;56108;48.730;9.304;2023-05-20T11:12:45;97416.44;;;20.54;56.42
967;BME280;56108;48.730;9.304;2023-05-20T11:14:56;97415.66;;;20.77;55.02
967;BME280;56108;48.730;9.304;2023-05-20T11:17:06;97410.97;;;21.10;55.05
967;BME280;56108;48.730;9.304;2023-05-20T11:19:17;97413.19;;;20.98;54.33
967;BME280;56108;48.730;9.304;2023-05-20T11:21:26;97400.16;;;21.02;54.61
967;BME280;56108;48.730;9.304;2023-05-20T11:23:35;97408.38;;;21.94;52.91
967;BME280;56108;48.730;9.304;2023-05-20T11:25:46;97409.81;;;21.81;52.69
967;BME280;56108;48.730;9.304;2023-05-20T11:27:54;97414.69;;;21.09;52.29
967;BME280;56108;48.730;9.304;2023-05-20T11:30:04;97413.84;;;21.40;54.00
967;BME280;56108;48.730;9.304;2023-05-20T11:32:13;97406.78;;;20.99;53.99
967;BME280;56108;48.730;9.304;2023-05-20T11:34:24;97411.06;;;21.25;52.96
967;BME280;56108;48.730;9.304;2023-05-20T11:36:40;97408.34;;;20.94;52.79
967;BME280;56108;48.730;9.304;2023-05-20T11:38:50;97395.16;;;21.53;53.97
967;BME280;56108;48.730;9.304;2023-05-20T11:40:58;97392.59;;;22.20;52.44
967;BME280;56108;48.730;9.304;2023-05-20T11:43:10;97395.19;;;22.28;51.48
967;BME280;56108;48.730;9.304;2023-05-20T11:45:19;97398.94;;;21.89;52.42
967;BME280;56108;48.730;9.304;2023-05-20T11:47:28;97397.88;;;21.22;51.66
967;BME280;56108;48.730;9.304;2023-05-20T11:49:47;97388.19;;;20.96;52.43